sensor_id;sensor_type;location;lat;lon;timestamp;P1;durP1;ratioP1;P2;durP2;ratioP2
71667;SDS011;59504;54.806;9.640;2023-02-01T00:00:29;12.55;;;1.77;;
71667;SDS011;59504;54.806;9.640;2023-02-01T00:02:29;11.75;;;1.33;;
71667;SDS011;59504;54.806;9.640;2023-02-01T00:04:30;17.83;;;2.05;;
71667;SDS011;59504;54.806;9.640;2023-02-01T00:06:31;14.98;;;2.28;;
71667;SDS011;59504;54.806;9.640;2023-02-01T00:08:32;14.90;;;1.95;;
71667;SDS011;59504;54.806;9.640;2023-02-01T00:10:32;27.23;;;2.83;;
71667;SDS011;59504;54.806;9.640;2023-02-01T00:12:33;23.70;;;3.13;;
71667;SDS011;59504;54.806;9.640;2023-02-01T00:14:33;23.17;;;2.83;;
71667;SDS011;59504;54.806;9.640;2023-02-01T00:16:38;20.85;;;2.72;;
71667;SDS011;59504;54.806;9.640;2023-02-01T00:18:38;14.57;;;2.88;;
71667;SDS011;59504;54.806;9.640;2023-02-01T00:20:44;13.55;;;1.95;;
71667;SDS011;59504;54.806;9.640;2023-02-01T00:22:45;19.55;;;2.20;;
71667;SDS011;59504;54.806;9.640;2023-02-01T00:24:46;23.80;;;2.38;;
71667;SDS011;59504;54.806;9.640;2023-02-01T00:26:47;25.20;;;3.00;;
71667;SDS011;59504;54.806;9.640;2023-02-01T00:28:48;17.63;;;2.45;;
71667;SDS011;59504;54.806;9.640;2023-02-01T00:30:55;13.45;;;1.88;;
71667;SDS011;59504;54.806;9.640;2023-02-01T00:32:57;20.98;;;2.03;;
71667;SDS011;59504;54.806;9.640;2023-02-01T00:34:57;10.55;;;1.67;;
71667;SDS011;59504;54.806;9.640;2023-02-01T00:36:58;7.55;;;1.83;;
71667;SDS011;59504;54.806;9.640;2023-02-01T00:39:00;15.65;;;1.85;;
71667;SDS011;59504;54.806;9.640;2023-02-01T00:41:04;13.32;;;2.05;;
71667;SDS011;59504;54.806;9.640;2023-02-01T00:43:13;23.80;;;2.72;;
71667;SDS011;59504;54.806;9.640;2023-02-01T00:45:13;25.50;;;2.85;;
71667;SDS011;59504;54.806;9.640;2023-02-01T00:47:14;29.88;;;4.28;;
71667;SDS011;59504;54.806;9.640;2023-02-01T00:49:15;31.90;;;3.75;;
71667;SDS011;59504;54.806;9.640;2023-02-01T00:51:16;24.33;;;3.47;;
71667;SDS011;59504;54.806;9.640;2023-02-01T00:53:18;21.05;;;3.20;;
71667;SDS011;59504;54.806;9.640;2023-02-01T00:55:19;30.20;;;3.97;;
71667;SDS011;59504;54.806;9.640;2023-02-01T00:57:20;38.70;;;4.00;;
71667;SDS011;59504;54.806;9.640;2023-02-01T00:59:20;36.35;;;3.60;;
71667;SDS011;59504;54.806;9.640;2023-02-01T01:01:22;40.92;;;4.00;;
71667;SDS011;59504;54.806;9.640;2023-02-01T01:03:24;28.58;;;3.80;;
71667;SDS011;59504;54.806;9.640;2023-02-01T01:05:25;27.95;;;3.35;;
71667;SDS011;59504;54.806;9.640;2023-02-01T01:07:27;32.15;;;4.25;;
71667;SDS011;59504;54.806;9.640;2023-02-01T01:09:28;46.50;;;4.32;;
71667;SDS011;59504;54.806;9.640;2023-02-01T01:11:30;25.70;;;3.72;;
71667;SDS011;59504;54.806;9.640;2023-02-01T01:13:32;38.92;;;4.15;;
71667;SDS011;59504;54.806;9.640;2023-02-01T01:15:37;39.15;;;4.00;;
71667;SDS011;59504;54.806;9.640;2023-02-01T01:17:39;33.40;;;4.78;;
71667;SDS011;59504;54.806;9.640;2023-02-01T01:19:39;38.20;;;4.65;;
71667;SDS011;59504;54.806;9.640;2023-02-01T01:21:40;34.05;;;4.72;;
71667;SDS011;59504;54.806;9.640;2023-02-01T01:23:41;40.58;;;4.32;;
71667;SDS011;59504;54.806;9.640;2023-02-01T01:25:42;31.92;;;3.95;;
71667;SDS011;59504;54.806;9.640;2023-02-01T01:27:42;35.35;;;4.90;;
71667;SDS011;59504;54.806;9.640;2023-02-01T01:29:43;36.58;;;4.63;;
71667;SDS011;59504;54.806;9.640;2023-02-01T01:31:44;34.00;;;3.72;;
71667;SDS011;59504;54.806;9.640;2023-02-01T01:33:47;35.70;;;3.85;;
71667;SDS011;59504;54.806;9.640;2023-02-01T01:35:49;29.63;;;4.43;;
71667;SDS011;59504;54.806;9.640;2023-02-01T01:37:49;29.38;;;3.92;;
71667;SDS011;59504;54.806;9.640;2023-02-01T01:39:50;33.85;;;4.13;;
71667;SDS011;59504;54.806;9.640;2023-02-01T01:41:51;35.13;;;4.05;;
71667;SDS011;59504;54.806;9.640;2023-02-01T01:44:01;30.05;;;3.63;;
71667;SDS011;59504;54.806;9.640;2023-02-01T01:46:04;41.65;;;4.00;;
71667;SDS011;59504;54.806;9.640;2023-02-01T01:48:25;43.05;;;5.05;;
71667;SDS011;59504;54.806;9.640;2023-02-01T01:50:50;32.30;;;4.47;;
71667;SDS011;59504;54.806;9.640;2023-02-01T01:52:51;39.28;;;5.15;;
71667;SDS011;59504;54.806;9.640;2023-02-01T01:54:56;37.65;;;4.07;;
71667;SDS011;59504;54.806;9.640;2023-02-01T01:57:00;38.08;;;4.30;;
71667;SDS011;59504;54.806;9.640;2023-02-01T01:59:04;45.08;;;5.22;;
71667;SDS011;59504;54.806;9.640;2023-02-01T02:01:06;49.60;;;5.47;;
71667;SDS011;59504;54.806;9.640;2023-02-01T02:03:08;52.33;;;5.97;;
71667;SDS011;59504;54.806;9.640;2023-02-01T02:05:11;36.13;;;4.93;;
71667;SDS011;59504;54.806;9.640;2023-02-01T02:07:17;47.23;;;5.53;;
71667;SDS011;59504;54.806;9.640;2023-02-01T02:09:22;45.75;;;5.30;;
71667;SDS011;59504;54.806;9.640;2023-02-01T02:11:23;47.75;;;5.20;;
71667;SDS011;59504;54.806;9.640;2023-02-01T02:13:24;52.85;;;5.63;;
71667;SDS011;59504;54.806;9.640;2023-02-01T02:15:41;49.95;;;6.57;;
71667;SDS011;59504;54.806;9.640;2023-02-01T02:25:17;52.75;;;6.22;;
71667;SDS011;59504;54.806;9.640;2023-02-01T02:35:06;52.25;;;6.38;;
71667;SDS011;59504;54.806;9.640;2023-02-01T02:41:48;55.25;;;5.40;;
71667;SDS011;59504;54.806;9.640;2023-02-01T02:46:57;46.58;;;5.63;;
71667;SDS011;59504;54.806;9.640;2023-02-01T02:49:24;48.97;;;6.60;;
71667;SDS011;59504;54.806;9.640;2023-02-01T02:51:39;49.40;;;5.80;;
71667;SDS011;59504;54.806;9.640;2023-02-01T02:54:05;44.55;;;6.00;;
71667;SDS011;59504;54.806;9.640;2023-02-01T02:56:31;46.78;;;5.53;;
71667;SDS011;59504;54.806;9.640;2023-02-01T02:58:52;41.97;;;5.78;;
71667;SDS011;59504;54.806;9.640;2023-02-01T03:01:13;59.00;;;6.22;;
71667;SDS011;59504;54.806;9.640;2023-02-01T03:03:35;55.92;;;6.43;;
71667;SDS011;59504;54.806;9.640;2023-02-01T03:08:01;51.63;;;5.53;;
71667;SDS011;59504;54.806;9.640;2023-02-01T03:10:03;44.08;;;5.10;;
71667;SDS011;59504;54.806;9.640;2023-02-01T03:12:09;47.90;;;6.10;;
71667;SDS011;59504;54.806;9.640;2023-02-01T03:14:31;44.80;;;6.72;;
71667;SDS011;59504;54.806;9.640;2023-02-01T03:16:50;43.55;;;4.93;;
71667;SDS011;59504;54.806;9.640;2023-02-01T03:18:59;59.47;;;7.05;;
71667;SDS011;59504;54.806;9.640;2023-02-01T03:21:08;48.55;;;6.40;;
71667;SDS011;59504;54.806;9.640;2023-02-01T03:23:15;57.53;;;6.40;;
71667;SDS011;59504;54.806;9.640;2023-02-01T03:25:21;39.30;;;5.22;;
71667;SDS011;59504;54.806;9.640;2023-02-01T03:27:29;38.65;;;5.65;;
71667;SDS011;59504;54.806;9.640;2023-02-01T03:29:42;29.27;;;4.22;;
71667;SDS011;59504;54.806;9.640;2023-02-01T03:31:50;28.77;;;3.22;;
71667;SDS011;59504;54.806;9.640;2023-02-01T03:33:51;29.88;;;4.13;;
71667;SDS011;59504;54.806;9.640;2023-02-01T03:36:08;30.50;;;4.38;;
71667;SDS011;59504;54.806;9.640;2023-02-01T03:40:35;24.42;;;3.50;;
71667;SDS011;59504;54.806;9.640;2023-02-01T03:42:49;27.17;;;4.13;;
71667;SDS011;59504;54.806;9.640;2023-02-01T03:44:57;34.10;;;4.68;;
71667;SDS011;59504;54.806;9.640;2023-02-01T03:47:07;36.63;;;4.65;;
71667;SDS011;59504;54.806;9.640;2023-02-01T03:49:13;32.25;;;3.67;;
71667;SDS011;59504;54.806;9.640;2023-02-01T03:51:38;40.25;;;5.22;;
71667;SDS011;59504;54.806;9.640;2023-02-01T03:53:40;30.92;;;4.45;;
71667;SDS011;59504;54.806;9.640;2023-02-01T03:55:43;42.53;;;5.57;;
71667;SDS011;59504;54.806;9.640;2023-02-01T03:57:45;36.63;;;5.30;;
71667;SDS011;59504;54.806;9.640;2023-02-01T03:59:50;34.28;;;4.82;;
71667;SDS011;59504;54.806;9.640;2023-02-01T04:01:51;36.20;;;5.25;;
71667;SDS011;59504;54.806;9.640;2023-02-01T04:03:52;38.85;;;5.57;;
71667;SDS011;59504;54.806;9.640;2023-02-01T04:05:53;42.45;;;5.45;;
71667;SDS011;59504;54.806;9.640;2023-02-01T04:07:54;46.15;;;5.90;;
71667;SDS011;59504;54.806;9.640;2023-02-01T04:09:55;42.67;;;6.32;;
71667;SDS011;59504;54.806;9.640;2023-02-01T04:12:16;55.47;;;6.82;;
71667;SDS011;59504;54.806;9.640;2023-02-01T04:14:37;39.47;;;5.20;;
71667;SDS011;59504;54.806;9.640;2023-02-01T04:16:57;42.60;;;5.32;;
71667;SDS011;59504;54.806;9.640;2023-02-01T04:19:18;38.78;;;5.47;;
71667;SDS011;59504;54.806;9.640;2023-02-01T04:21:38;59.92;;;6.72;;
71667;SDS011;59504;54.806;9.640;2023-02-01T04:23:59;52.35;;;6.90;;
71667;SDS011;59504;54.806;9.640;2023-02-01T04:26:20;42.45;;;5.85;;
71667;SDS011;59504;54.806;9.640;2023-02-01T04:28:21;44.78;;;6.32;;
71667;SDS011;59504;54.806;9.640;2023-02-01T04:30:42;52.17;;;6.40;;
71667;SDS011;59504;54.806;9.640;2023-02-01T04:32:42;45.05;;;5.82;;
71667;SDS011;59504;54.806;9.640;2023-02-01T04:35:03;47.40;;;6.32;;
71667;SDS011;59504;54.806;9.640;2023-02-01T04:37:24;44.38;;;6.35;;
71667;SDS011;59504;54.806;9.640;2023-02-01T04:39:45;46.60;;;5.70;;
71667;SDS011;59504;54.806;9.640;2023-02-01T04:42:03;53.47;;;6.30;;
71667;SDS011;59504;54.806;9.640;2023-02-01T04:44:24;45.80;;;6.70;;
71667;SDS011;59504;54.806;9.640;2023-02-01T04:46:45;44.13;;;5.10;;
71667;SDS011;59504;54.806;9.640;2023-02-01T04:49:08;40.17;;;3.85;;
71667;SDS011;59504;54.806;9.640;2023-02-01T04:51:29;15.40;;;2.40;;
71667;SDS011;59504;54.806;9.640;2023-02-01T04:53:50;32.53;;;4.07;;
71667;SDS011;59504;54.806;9.640;2023-02-01T04:56:10;36.30;;;5.25;;
71667;SDS011;59504;54.806;9.640;2023-02-01T04:58:31;36.10;;;5.50;;
71667;SDS011;59504;54.806;9.640;2023-02-01T05:00:52;34.70;;;5.20;;
71667;SDS011;59504;54.806;9.640;2023-02-01T05:03:12;37.08;;;5.15;;
71667;SDS011;59504;54.806;9.640;2023-02-01T05:05:33;34.15;;;5.03;;
71667;SDS011;59504;54.806;9.640;2023-02-01T05:07:54;30.25;;;4.95;;
71667;SDS011;59504;54.806;9.640;2023-02-01T05:10:14;34.67;;;4.28;;
71667;SDS011;59504;54.806;9.640;2023-02-01T05:12:35;42.08;;;4.40;;
71667;SDS011;59504;54.806;9.640;2023-02-01T05:15:15;29.40;;;4.95;;
71667;SDS011;59504;54.806;9.640;2023-02-01T05:17:35;28.05;;;3.55;;
71667;SDS011;59504;54.806;9.640;2023-02-01T05:19:56;35.90;;;4.40;;
71667;SDS011;59504;54.806;9.640;2023-02-01T05:22:17;34.60;;;4.40;;
71667;SDS011;59504;54.806;9.640;2023-02-01T05:24:37;43.95;;;4.97;;
71667;SDS011;59504;54.806;9.640;2023-02-01T05:26:58;33.72;;;3.70;;
71667;SDS011;59504;54.806;9.640;2023-02-01T05:28:59;37.45;;;5.10;;
71667;SDS011;59504;54.806;9.640;2023-02-01T05:31:00;27.08;;;4.45;;
71667;SDS011;59504;54.806;9.640;2023-02-01T05:33:01;38.20;;;4.35;;
71667;SDS011;59504;54.806;9.640;2023-02-01T05:35:02;38.40;;;4.22;;
71667;SDS011;59504;54.806;9.640;2023-02-01T05:37:02;28.55;;;3.70;;
71667;SDS011;59504;54.806;9.640;2023-02-01T05:39:03;29.00;;;3.63;;
71667;SDS011;59504;54.806;9.640;2023-02-01T05:41:05;45.00;;;4.55;;
71667;SDS011;59504;54.806;9.640;2023-02-01T05:43:06;31.65;;;4.45;;
71667;SDS011;59504;54.806;9.640;2023-02-01T05:45:07;31.90;;;4.47;;
71667;SDS011;59504;54.806;9.640;2023-02-01T05:47:08;34.70;;;5.13;;
71667;SDS011;59504;54.806;9.640;2023-02-01T05:49:10;33.38;;;4.68;;
71667;SDS011;59504;54.806;9.640;2023-02-01T05:51:11;29.40;;;4.30;;
71667;SDS011;59504;54.806;9.640;2023-02-01T05:53:12;34.67;;;4.30;;
71667;SDS011;59504;54.806;9.640;2023-02-01T05:55:13;41.25;;;4.65;;
71667;SDS011;59504;54.806;9.640;2023-02-01T05:57:14;36.15;;;5.13;;
71667;SDS011;59504;54.806;9.640;2023-02-01T05:59:15;27.25;;;3.78;;
71667;SDS011;59504;54.806;9.640;2023-02-01T06:01:16;36.53;;;4.57;;
71667;SDS011;59504;54.806;9.640;2023-02-01T06:03:16;38.70;;;4.38;;
71667;SDS011;59504;54.806;9.640;2023-02-01T06:05:17;33.30;;;4.18;;
71667;SDS011;59504;54.806;9.640;2023-02-01T06:07:18;36.42;;;4.47;;
71667;SDS011;59504;54.806;9.640;2023-02-01T06:09:19;33.80;;;4.63;;
71667;SDS011;59504;54.806;9.640;2023-02-01T06:11:20;36.22;;;4.18;;
71667;SDS011;59504;54.806;9.640;2023-02-01T06:13:20;32.72;;;5.00;;
71667;SDS011;59504;54.806;9.640;2023-02-01T06:15:21;37.00;;;4.93;;
71667;SDS011;59504;54.806;9.640;2023-02-01T06:17:21;35.97;;;4.43;;
71667;SDS011;59504;54.806;9.640;2023-02-01T06:19:22;41.60;;;5.22;;
71667;SDS011;59504;54.806;9.640;2023-02-01T06:21:23;35.33;;;4.13;;
71667;SDS011;59504;54.806;9.640;2023-02-01T06:23:24;44.78;;;4.70;;
71667;SDS011;59504;54.806;9.640;2023-02-01T06:25:25;31.20;;;5.10;;
71667;SDS011;59504;54.806;9.640;2023-02-01T06:27:25;37.63;;;4.90;;
71667;SDS011;59504;54.806;9.640;2023-02-01T06:29:26;36.50;;;4.05;;
71667;SDS011;59504;54.806;9.640;2023-02-01T06:31:27;47.85;;;5.60;;
71667;SDS011;59504;54.806;9.640;2023-02-01T06:33:27;38.65;;;4.68;;
71667;SDS011;59504;54.806;9.640;2023-02-01T06:35:28;41.65;;;5.10;;
71667;SDS011;59504;54.806;9.640;2023-02-01T06:37:29;42.58;;;4.85;;
71667;SDS011;59504;54.806;9.640;2023-02-01T06:39:30;32.25;;;4.88;;
71667;SDS011;59504;54.806;9.640;2023-02-01T06:41:30;40.78;;;5.22;;
71667;SDS011;59504;54.806;9.640;2023-02-01T06:43:31;38.35;;;4.57;;
71667;SDS011;59504;54.806;9.640;2023-02-01T06:45:35;37.70;;;4.38;;
71667;SDS011;59504;54.806;9.640;2023-02-01T06:47:36;46.00;;;5.43;;
71667;SDS011;59504;54.806;9.640;2023-02-01T06:49:37;43.35;;;5.38;;
71667;SDS011;59504;54.806;9.640;2023-02-01T06:51:37;36.08;;;4.93;;
71667;SDS011;59504;54.806;9.640;2023-02-01T06:53:38;33.58;;;4.65;;
71667;SDS011;59504;54.806;9.640;2023-02-01T06:55:39;30.25;;;4.47;;
71667;SDS011;59504;54.806;9.640;2023-02-01T06:57:39;34.25;;;4.80;;
71667;SDS011;59504;54.806;9.640;2023-02-01T06:59:40;38.65;;;5.32;;
71667;SDS011;59504;54.806;9.640;2023-02-01T07:01:41;39.17;;;4.60;;
71667;SDS011;59504;54.806;9.640;2023-02-01T07:03:42;39.97;;;4.68;;
71667;SDS011;59504;54.806;9.640;2023-02-01T07:05:43;34.90;;;5.03;;
71667;SDS011;59504;54.806;9.640;2023-02-01T07:07:43;37.80;;;5.38;;
71667;SDS011;59504;54.806;9.640;2023-02-01T07:09:44;41.45;;;5.05;;
71667;SDS011;59504;54.806;9.640;2023-02-01T07:11:45;37.97;;;5.10;;
71667;SDS011;59504;54.806;9.640;2023-02-01T07:13:46;36.20;;;4.57;;
71667;SDS011;59504;54.806;9.640;2023-02-01T07:16:11;39.28;;;4.82;;
71667;SDS011;59504;54.806;9.640;2023-02-01T07:18:27;37.03;;;4.95;;
71667;SDS011;59504;54.806;9.640;2023-02-01T07:20:28;39.60;;;5.50;;
71667;SDS011;59504;54.806;9.640;2023-02-01T07:22:54;41.80;;;5.03;;
71667;SDS011;59504;54.806;9.640;2023-02-01T07:25:15;44.97;;;4.85;;
71667;SDS011;59504;54.806;9.640;2023-02-01T07:27:36;33.60;;;3.88;;
71667;SDS011;59504;54.806;9.640;2023-02-01T07:29:57;26.77;;;3.40;;
71667;SDS011;59504;54.806;9.640;2023-02-01T07:32:21;36.92;;;4.75;;
71667;SDS011;59504;54.806;9.640;2023-02-01T07:34:42;38.10;;;4.68;;
71667;SDS011;59504;54.806;9.640;2023-02-01T07:37:03;37.13;;;4.53;;
71667;SDS011;59504;54.806;9.640;2023-02-01T07:39:09;27.95;;;4.18;;
71667;SDS011;59504;54.806;9.640;2023-02-01T07:41:30;33.75;;;4.80;;
71667;SDS011;59504;54.806;9.640;2023-02-01T07:43:54;40.00;;;4.50;;
71667;SDS011;59504;54.806;9.640;2023-02-01T07:46:15;34.50;;;4.50;;
71667;SDS011;59504;54.806;9.640;2023-02-01T07:48:36;36.13;;;3.97;;
71667;SDS011;59504;54.806;9.640;2023-02-01T07:51:04;39.33;;;3.95;;
71667;SDS011;59504;54.806;9.640;2023-02-01T07:53:28;38.50;;;4.75;;
71667;SDS011;59504;54.806;9.640;2023-02-01T07:55:49;50.42;;;5.28;;
71667;SDS011;59504;54.806;9.640;2023-02-01T07:58:10;44.25;;;5.05;;
71667;SDS011;59504;54.806;9.640;2023-02-01T08:00:30;41.40;;;5.25;;
71667;SDS011;59504;54.806;9.640;2023-02-01T08:03:10;35.83;;;4.93;;
71667;SDS011;59504;54.806;9.640;2023-02-01T08:05:30;32.00;;;4.40;;
71667;SDS011;59504;54.806;9.640;2023-02-01T08:07:51;33.80;;;4.53;;
71667;SDS011;59504;54.806;9.640;2023-02-01T08:10:11;38.65;;;4.78;;
71667;SDS011;59504;54.806;9.640;2023-02-01T08:12:32;26.83;;;4.25;;
71667;SDS011;59504;54.806;9.640;2023-02-01T08:14:53;28.30;;;4.22;;
71667;SDS011;59504;54.806;9.640;2023-02-01T08:17:16;45.22;;;5.80;;
71667;SDS011;59504;54.806;9.640;2023-02-01T08:19:37;33.80;;;5.22;;
71667;SDS011;59504;54.806;9.640;2023-02-01T08:21:57;37.20;;;4.70;;
71667;SDS011;59504;54.806;9.640;2023-02-01T08:24:19;32.40;;;4.68;;
71667;SDS011;59504;54.806;9.640;2023-02-01T08:26:41;32.10;;;4.47;;
71667;SDS011;59504;54.806;9.640;2023-02-01T08:29:02;36.95;;;4.78;;
71667;SDS011;59504;54.806;9.640;2023-02-01T08:31:25;35.03;;;4.22;;
71667;SDS011;59504;54.806;9.640;2023-02-01T08:33:51;25.80;;;3.53;;
71667;SDS011;59504;54.806;9.640;2023-02-01T08:36:14;27.52;;;3.78;;
71667;SDS011;59504;54.806;9.640;2023-02-01T08:38:35;22.55;;;3.25;;
71667;SDS011;59504;54.806;9.640;2023-02-01T08:40:56;30.58;;;3.78;;
71667;SDS011;59504;54.806;9.640;2023-02-01T08:43:18;32.53;;;3.67;;
71667;SDS011;59504;54.806;9.640;2023-02-01T08:45:39;27.70;;;3.38;;
71667;SDS011;59504;54.806;9.640;2023-02-01T08:48:00;30.77;;;3.60;;
71667;SDS011;59504;54.806;9.640;2023-02-01T08:50:21;25.80;;;3.33;;
71667;SDS011;59504;54.806;9.640;2023-02-01T08:52:43;18.83;;;3.03;;
71667;SDS011;59504;54.806;9.640;2023-02-01T08:55:04;25.30;;;3.75;;
71667;SDS011;59504;54.806;9.640;2023-02-01T08:57:26;25.77;;;3.75;;
71667;SDS011;59504;54.806;9.640;2023-02-01T08:59:46;28.45;;;3.33;;
71667;SDS011;59504;54.806;9.640;2023-02-01T09:02:08;23.88;;;3.45;;
71667;SDS011;59504;54.806;9.640;2023-02-01T09:04:34;28.17;;;3.60;;
71667;SDS011;59504;54.806;9.640;2023-02-01T09:06:55;17.05;;;2.80;;
71667;SDS011;59504;54.806;9.640;2023-02-01T09:09:14;20.88;;;2.40;;
71667;SDS011;59504;54.806;9.640;2023-02-01T09:11:33;20.05;;;2.42;;
71667;SDS011;59504;54.806;9.640;2023-02-01T09:13:52;14.35;;;2.65;;
71667;SDS011;59504;54.806;9.640;2023-02-01T09:16:11;25.52;;;3.00;;
71667;SDS011;59504;54.806;9.640;2023-02-01T09:18:31;29.17;;;3.22;;
71667;SDS011;59504;54.806;9.640;2023-02-01T09:20:51;23.88;;;3.95;;
71667;SDS011;59504;54.806;9.640;2023-02-01T09:23:10;33.58;;;5.57;;
71667;SDS011;59504;54.806;9.640;2023-02-01T09:25:30;30.10;;;3.65;;
71667;SDS011;59504;54.806;9.640;2023-02-01T09:27:49;30.85;;;3.50;;
71667;SDS011;59504;54.806;9.640;2023-02-01T09:30:08;35.92;;;3.78;;
71667;SDS011;59504;54.806;9.640;2023-02-01T09:32:27;24.70;;;3.05;;
71667;SDS011;59504;54.806;9.640;2023-02-01T09:34:47;30.17;;;4.13;;
71667;SDS011;59504;54.806;9.640;2023-02-01T09:37:10;27.33;;;4.00;;
71667;SDS011;59504;54.806;9.640;2023-02-01T09:39:29;30.08;;;3.92;;
71667;SDS011;59504;54.806;9.640;2023-02-01T09:46:53;18.75;;;2.85;;
71667;SDS011;59504;54.806;9.640;2023-02-01T09:49:26;28.95;;;3.95;;
71667;SDS011;59504;54.806;9.640;2023-02-01T09:52:02;32.63;;;4.65;;
71667;SDS011;59504;54.806;9.640;2023-02-01T09:54:26;32.03;;;4.50;;
71667;SDS011;59504;54.806;9.640;2023-02-01T09:56:53;35.95;;;4.35;;
71667;SDS011;59504;54.806;9.640;2023-02-01T09:59:26;35.90;;;4.03;;
71667;SDS011;59504;54.806;9.640;2023-02-01T10:02:15;42.05;;;4.85;;
71667;SDS011;59504;54.806;9.640;2023-02-01T10:04:37;33.75;;;4.82;;
71667;SDS011;59504;54.806;9.640;2023-02-01T10:07:02;32.55;;;4.82;;
71667;SDS011;59504;54.806;9.640;2023-02-01T10:22:33;31.25;;;4.30;;
71667;SDS011;59504;54.806;9.640;2023-02-01T10:25:08;33.60;;;4.45;;
71667;SDS011;59504;54.806;9.640;2023-02-01T10:27:36;42.38;;;4.47;;
71667;SDS011;59504;54.806;9.640;2023-02-01T10:29:58;35.70;;;4.47;;
71667;SDS011;59504;54.806;9.640;2023-02-01T10:32:23;38.50;;;3.88;;
71667;SDS011;59504;54.806;9.640;2023-02-01T10:34:49;43.63;;;5.45;;
71667;SDS011;59504;54.806;9.640;2023-02-01T10:37:17;36.17;;;4.47;;
71667;SDS011;59504;54.806;9.640;2023-02-01T10:39:43;40.45;;;4.90;;
71667;SDS011;59504;54.806;9.640;2023-02-01T10:42:02;38.13;;;5.80;;
71667;SDS011;59504;54.806;9.640;2023-02-01T10:44:24;31.65;;;3.80;;
71667;SDS011;59504;54.806;9.640;2023-02-01T10:49:05;39.85;;;4.63;;
71667;SDS011;59504;54.806;9.640;2023-02-01T10:54:41;33.40;;;5.40;;
71667;SDS011;59504;54.806;9.640;2023-02-01T10:57:00;41.88;;;4.72;;
71667;SDS011;59504;54.806;9.640;2023-02-01T10:59:23;43.15;;;4.72;;
71667;SDS011;59504;54.806;9.640;2023-02-01T11:01:44;32.35;;;4.25;;
71667;SDS011;59504;54.806;9.640;2023-02-01T11:04:10;32.72;;;4.65;;
71667;SDS011;59504;54.806;9.640;2023-02-01T11:06:35;25.70;;;4.00;;
71667;SDS011;59504;54.806;9.640;2023-02-01T11:09:00;36.28;;;4.30;;
71667;SDS011;59504;54.806;9.640;2023-02-01T11:11:26;33.38;;;5.43;;
71667;SDS011;59504;54.806;9.640;2023-02-01T11:13:51;20.90;;;3.85;;
71667;SDS011;59504;54.806;9.640;2023-02-01T11:16:13;19.23;;;2.08;;
71667;SDS011;59504;54.806;9.640;2023-02-01T11:18:36;11.32;;;1.80;;
71667;SDS011;59504;54.806;9.640;2023-02-01T11:20:56;6.57;;;1.23;;
71667;SDS011;59504;54.806;9.640;2023-02-01T11:23:17;9.30;;;1.05;;
71667;SDS011;59504;54.806;9.640;2023-02-01T11:25:40;11.23;;;1.35;;
71667;SDS011;59504;54.806;9.640;2023-02-01T11:28:27;16.73;;;1.77;;
71667;SDS011;59504;54.806;9.640;2023-02-01T11:30:49;12.25;;;1.85;;
71667;SDS011;59504;54.806;9.640;2023-02-01T11:33:16;9.05;;;1.35;;
71667;SDS011;59504;54.806;9.640;2023-02-01T11:35:37;15.68;;;1.42;;
71667;SDS011;59504;54.806;9.640;2023-02-01T11:37:58;10.18;;;2.17;;
71667;SDS011;59504;54.806;9.640;2023-02-01T11:42:39;12.10;;;1.73;;
71667;SDS011;59504;54.806;9.640;2023-02-01T11:45:29;12.20;;;1.83;;
71667;SDS011;59504;54.806;9.640;2023-02-01T11:47:52;10.15;;;1.48;;
71667;SDS011;59504;54.806;9.640;2023-02-01T11:50:17;14.00;;;1.60;;
71667;SDS011;59504;54.806;9.640;2023-02-01T11:52:52;17.23;;;1.85;;
71667;SDS011;59504;54.806;9.640;2023-02-01T11:58:34;9.82;;;1.40;;
71667;SDS011;59504;54.806;9.640;2023-02-01T12:01:30;10.25;;;1.40;;
71667;SDS011;59504;54.806;9.640;2023-02-01T12:06:54;14.20;;;1.85;;
71667;SDS011;59504;54.806;9.640;2023-02-01T12:15:12;9.73;;;1.17;;
71667;SDS011;59504;54.806;9.640;2023-02-01T12:20:31;10.70;;;1.48;;
71667;SDS011;59504;54.806;9.640;2023-02-01T12:22:55;14.48;;;1.65;;
71667;SDS011;59504;54.806;9.640;2023-02-01T12:25:40;13.93;;;1.80;;
71667;SDS011;59504;54.806;9.640;2023-02-01T12:46:31;14.73;;;2.38;;
71667;SDS011;59504;54.806;9.640;2023-02-01T12:49:36;22.98;;;3.00;;
71667;SDS011;59504;54.806;9.640;2023-02-01T12:51:49;16.70;;;2.00;;
71667;SDS011;59504;54.806;9.640;2023-02-01T12:54:13;18.42;;;2.15;;
71667;SDS011;59504;54.806;9.640;2023-02-01T12:56:55;19.85;;;2.88;;
71667;SDS011;59504;54.806;9.640;2023-02-01T13:02:06;20.23;;;2.63;;
71667;SDS011;59504;54.806;9.640;2023-02-01T13:04:52;21.10;;;2.33;;
71667;SDS011;59504;54.806;9.640;2023-02-01T13:07:31;26.40;;;3.55;;
71667;SDS011;59504;54.806;9.640;2023-02-01T13:10:03;16.30;;;2.95;;
71667;SDS011;59504;54.806;9.640;2023-02-01T13:12:56;35.22;;;4.18;;
71667;SDS011;59504;54.806;9.640;2023-02-01T13:15:31;38.72;;;3.85;;
71667;SDS011;59504;54.806;9.640;2023-02-01T13:17:58;32.55;;;3.88;;
71667;SDS011;59504;54.806;9.640;2023-02-01T13:20:34;29.40;;;5.10;;
71667;SDS011;59504;54.806;9.640;2023-02-01T13:23:03;29.85;;;3.75;;
71667;SDS011;59504;54.806;9.640;2023-02-01T13:25:46;27.77;;;3.70;;
71667;SDS011;59504;54.806;9.640;2023-02-01T13:28:16;30.15;;;3.70;;
71667;SDS011;59504;54.806;9.640;2023-02-01T13:30:58;37.95;;;4.88;;
71667;SDS011;59504;54.806;9.640;2023-02-01T13:41:41;24.63;;;3.63;;
71667;SDS011;59504;54.806;9.640;2023-02-01T13:44:14;41.30;;;4.43;;
71667;SDS011;59504;54.806;9.640;2023-02-01T13:46:45;30.70;;;4.75;;
71667;SDS011;59504;54.806;9.640;2023-02-01T13:49:05;34.85;;;3.92;;
71667;SDS011;59504;54.806;9.640;2023-02-01T13:53:55;38.67;;;4.43;;
71667;SDS011;59504;54.806;9.640;2023-02-01T13:56:15;38.78;;;5.00;;
71667;SDS011;59504;54.806;9.640;2023-02-01T13:58:37;48.10;;;4.50;;
71667;SDS011;59504;54.806;9.640;2023-02-01T14:03:43;44.30;;;4.38;;
71667;SDS011;59504;54.806;9.640;2023-02-01T14:06:14;48.50;;;5.00;;
71667;SDS011;59504;54.806;9.640;2023-02-01T14:08:46;35.20;;;4.55;;
71667;SDS011;59504;54.806;9.640;2023-02-01T14:11:31;35.78;;;4.75;;
71667;SDS011;59504;54.806;9.640;2023-02-01T14:16:35;44.53;;;4.85;;
71667;SDS011;59504;54.806;9.640;2023-02-01T14:18:58;45.08;;;5.47;;
71667;SDS011;59504;54.806;9.640;2023-02-01T14:23:45;39.08;;;4.75;;
71667;SDS011;59504;54.806;9.640;2023-02-01T14:26:06;34.72;;;4.60;;
71667;SDS011;59504;54.806;9.640;2023-02-01T14:28:28;39.38;;;4.93;;
71667;SDS011;59504;54.806;9.640;2023-02-01T14:30:48;39.83;;;5.35;;
71667;SDS011;59504;54.806;9.640;2023-02-01T14:33:11;49.53;;;6.13;;
71667;SDS011;59504;54.806;9.640;2023-02-01T14:35:39;49.83;;;6.20;;
71667;SDS011;59504;54.806;9.640;2023-02-01T14:37:59;44.72;;;5.43;;
71667;SDS011;59504;54.806;9.640;2023-02-01T14:40:24;41.92;;;6.38;;
71667;SDS011;59504;54.806;9.640;2023-02-01T14:42:47;37.03;;;5.30;;
71667;SDS011;59504;54.806;9.640;2023-02-01T14:47:40;43.83;;;6.32;;
71667;SDS011;59504;54.806;9.640;2023-02-01T14:50:02;56.42;;;8.25;;
71667;SDS011;59504;54.806;9.640;2023-02-01T14:52:29;49.38;;;6.70;;
71667;SDS011;59504;54.806;9.640;2023-02-01T14:54:54;40.45;;;5.57;;
71667;SDS011;59504;54.806;9.640;2023-02-01T14:57:18;46.55;;;6.93;;
71667;SDS011;59504;54.806;9.640;2023-02-01T14:59:43;47.88;;;6.80;;
71667;SDS011;59504;54.806;9.640;2023-02-01T15:02:08;65.40;;;7.63;;
71667;SDS011;59504;54.806;9.640;2023-02-01T15:04:41;54.63;;;6.82;;
71667;SDS011;59504;54.806;9.640;2023-02-01T15:07:05;54.63;;;6.47;;
71667;SDS011;59504;54.806;9.640;2023-02-01T15:09:37;54.38;;;6.05;;
71667;SDS011;59504;54.806;9.640;2023-02-01T15:12:05;50.15;;;6.57;;
71667;SDS011;59504;54.806;9.640;2023-02-01T15:14:37;52.97;;;6.50;;